Time;durP1;ratioP1;P1;durP2;ratioP2;P2;SDS_P1;SDS_P2;PMS_P1;PMS_P2;Temp;Humidity;BMP_temperature;BMP_pressure;BME280_temperature;BME280_humidity;BME280_pressure;Samples;Min_cycle;Max_cycle;Signal;HPM_P1;HPM_P2
2023/12/24 00:02:26;;;;;;;10.70;4.50;;;;;;;2.51;100.00;99025.66;110380;1264;23703;-82
2023/12/24 00:05:29;;;;;;;11.00;5.10;;;;;;;2.54;100.00;99026.95;109966;1268;21982;-79
2023/12/24 00:09:19;;;;;;;11.90;5.30;;;;;;;2.56;100.00;99026.55;110097;1269;23720;-81
2023/12/24 00:12:02;;;;;;;12.20;5.10;;;;;;;2.60;100.00;99031.08;109901;1263;21982;-83
2023/12/24 00:15:06;;;;;;;7.10;4.10;;;;;;;2.64;100.00;99040.59;109349;1273;22046;-80
2023/12/24 00:18:26;;;;;;;9.40;4.30;;;;;;;2.64;100.00;99032.88;109329;1273;21985;-80
2023/12/24 00:21:11;;;;;;;9.10;4.90;;;;;;;2.68;100.00;99042.21;109180;1273;23747;-81
2023/12/24 00:23:57;;;;;;;11.10;5.00;;;;;;;2.70;100.00;99045.42;108895;1274;22242;-79
2023/12/24 00:26:40;;;;;;;9.30;4.40;;;;;;;2.72;100.00;99047.42;108846;1280;22098;-80
2023/12/24 00:30:30;;;;;;;8.90;3.70;;;;;;;2.73;100.00;99048.95;108716;1280;23746;-80
2023/12/24 00:33:49;;;;;;;;;;;;;;;;;;;;;
2023/12/24 00:37:05;;;;;;;9.50;3.50;;;;;;;2.65;100.00;99052.93;108602;1277;22015;-81
2023/12/24 00:40:19;;;;;;;;;;;;;;;2.69;100.00;99060.40;108386;1288;23651;-80
2023/12/24 00:43:37;;;;;;;;;;;;;;;;;;;;;
2023/12/24 00:47:06;;;;;;;7.60;3.80;;;;;;;2.66;100.00;99067.86;108170;1291;23112;-78
2023/12/24 00:50:15;;;;;;;11.80;4.70;;;;;;;2.69;100.00;99066.73;107787;1291;23268;-81
2023/12/24 00:57:11;;;;;;;8.10;4.10;;;;;;;2.67;100.00;99067.50;107587;1297;22015;-80
2023/12/24 01:00:02;;;;;;;11.60;4.60;;;;;;;2.66;100.00;99069.40;107855;1295;22445;-80
2023/12/24 01:03:08;;;;;;;10.60;5.00;;;;;;;2.67;100.00;99074.87;107965;1291;22051;-81
2023/12/24 01:06:29;;;;;;;12.20;4.60;;;;;;;2.68;100.00;99083.61;108272;1289;22327;-79
2023/12/24 01:09:42;;;;;;;8.10;3.20;;;;;;;2.69;100.00;99087.54;107965;1290;23061;-81
2023/12/24 01:12:54;;;;;;;12.60;5.30;;;;;;;2.70;100.00;99089.23;108220;1292;22608;-81
2023/12/24 01:16:02;;;;;;;7.20;4.10;;;;;;;2.71;100.00;99090.38;108329;1288;22012;-82
2023/12/24 01:19:45;;;;;;;9.90;3.70;;;;;;;2.73;100.00;99092.57;108013;1292;22820;-82
2023/12/24 01:22:40;;;;;;;10.80;4.30;;;;;;;2.72;100.00;99094.14;108092;1287;23628;-81
2023/12/24 01:25:49;;;;;;;;;;;;;;;;;;;;;
2023/12/24 01:29:19;;;;;;;9.50;4.10;;;;;;;2.79;100.00;99088.83;108592;1284;23647;-82
2023/12/24 01:32:21;;;;;;;9.40;3.70;;;;;;;2.73;100.00;99080.39;108859;1280;23078;-83
2023/12/24 01:35:53;;;;;;;10.20;3.50;;;;;;;2.78;100.00;99089.02;108858;1276;22745;-83
2023/12/24 01:39:07;;;;;;;;;;;;;;;;;;;;;
2023/12/24 01:42:12;;;;;;;6.90;3.40;;;;;;;2.74;100.00;99082.41;108779;1282;23720;-82
2023/12/24 01:45:51;;;;;;;8.10;3.80;;;;;;;2.71;100.00;99076.30;109072;1278;22016;-82
2023/12/24 01:49:05;;;;;;;;;;;;;;;;;;;;;
2023/12/24 01:52:41;;;;;;;6.20;3.30;;;;;;;2.66;100.00;99091.72;109116;1276;22406;-82
2023/12/24 01:55:56;;;;;;;11.10;4.30;;;;;;;2.63;100.00;99093.52;109122;1278;23742;-81
2023/12/24 01:58:57;;;;;;;9.40;4.10;;;;;;;2.65;100.00;99100.00;106563;1282;23656;-79
2023/12/24 02:02:15;;;;;;;6.80;3.40;;;;;;;2.68;100.00;99101.64;109001;1278;23745;-81
2023/12/24 02:05:14;;;;;;;6.60;3.70;;;;;;;2.71;100.00;99106.38;108716;1283;22440;-81
2023/12/24 02:11:26;;;;;;;;;;;;;;;;;;;;;
2023/12/24 02:14:13;;;;;;;8.90;4.00;;;;;;;2.76;100.00;99095.08;108361;1288;22018;-81
2023/12/24 02:17:29;;;;;;;;;;;;;;;;;;;;;
2023/12/24 02:20:44;;;;;;;8.70;3.30;;;;;;;2.80;100.00;99101.34;108226;1292;23058;-80
2023/12/24 02:27:47;;;;;;;10.30;4.40;;;;;;;2.74;100.00;99106.29;108589;1286;22001;-79
2023/12/24 02:32:32;;;;;;;7.80;3.60;;;;;;;2.69;100.00;99109.50;108385;1288;21999;-83
2023/12/24 02:35:19;;;;;;;5.00;3.70;;;;;;;2.68;100.00;99103.88;107617;1291;22029;-80
2023/12/24 02:38:37;;;;;;;8.10;3.40;;;;;;;2.68;100.00;99102.33;108287;1290;23143;-81
2023/12/24 02:42:00;;;;;;;7.80;3.90;;;;;;;2.67;100.00;99100.14;108132;1291;22016;-81
2023/12/24 02:45:12;;;;;;;;;;;;;;;2.64;100.00;99095.91;108241;1291;21992;-80
2023/12/24 02:53:06;;;;;;;8.00;4.00;;;;;;;2.52;100.00;99096.71;108194;1291;22004;-81
2023/12/24 02:56:38;;;;;;;;;;;;;;;;;;;;;
2023/12/24 03:04:12;;;;;;;10.70;4.70;;;;;;;2.57;100.00;99099.67;107730;1295;21999;-82
2023/12/24 03:07:29;;;;;;;11.60;4.80;;;;;;;2.58;100.00;99099.48;107205;1299;23100;-84
2023/12/24 03:11:01;;;;;;;9.10;6.10;;;;;;;2.61;100.00;99104.05;106915;1293;22032;-82
2023/12/24 03:14:10;;;;;;;10.00;5.90;;;;;;;2.60;100.00;99108.20;107756;1294;22025;-82
2023/12/24 03:17:12;;;;;;;6.90;5.10;;;;;;;2.58;100.00;99114.44;107841;1293;22026;-83
2023/12/24 03:19:53;;;;;;;8.50;5.80;;;;;;;2.54;100.00;99120.89;107737;1292;22492;-81
2023/12/24 03:22:39;;;;;;;9.00;5.70;;;;;;;2.46;100.00;99110.44;108091;1281;23138;-84
2023/12/24 03:25:23;;;;;;;;;;;;;;;;;;;;;
2023/12/24 03:28:05;;;;;;;8.60;5.60;;;;;;;2.51;100.00;99125.92;108792;1276;23072;-80
2023/12/24 03:30:53;;;;;;;7.60;5.90;;;;;;;2.47;100.00;99129.11;109190;1276;23085;-81
2023/12/24 03:34:46;;;;;;;;;;;;;;;;;;;;;
2023/12/24 03:37:59;;;;;;;;;;;;;;;;;;;;;
2023/12/24 03:40:45;;;;;;;5.90;5.40;;;;;;;2.31;100.00;99139.98;108989;1278;21992;-81
2023/12/24 03:43:42;;;;;;;6.50;5.10;;;;;;;2.28;100.00;99146.92;109023;1273;22009;-81
2023/12/24 03:46:40;;;;;;;5.80;5.20;;;;;;;2.26;100.00;99149.03;109201;1277;22012;-81
2023/12/24 03:49:57;;;;;;;5.50;4.80;;;;;;;2.24;100.00;99149.08;109090;1277;23778;-82
2023/12/24 03:53:43;;;;;;;5.30;4.80;;;;;;;2.21;100.00;99154.29;109117;1277;21993;-81
2023/12/24 03:56:21;;;;;;;5.20;4.60;;;;;;;2.21;100.00;99157.56;109137;1277;22027;-82
2023/12/24 03:59:16;;;;;;;6.70;5.20;;;;;;;2.25;100.00;99155.24;109179;1274;22093;-81
2023/12/24 04:02:02;;;;;;;5.90;4.30;;;;;;;2.31;100.00;99156.81;109353;1274;22016;-81
2023/12/24 04:05:14;;;;;;;8.60;5.60;;;;;;;2.31;100.00;99155.43;109751;1270;21982;-83
2023/12/24 04:08:41;;;;;;;5.60;4.10;;;;;;;2.27;100.00;99157.91;109713;1270;23065;-83
2023/12/24 04:11:41;;;;;;;5.70;3.90;;;;;;;2.26;100.00;99152.45;109294;1275;23712;-83
2023/12/24 04:14:40;;;;;;;4.60;4.00;;;;;;;2.27;100.00;99153.30;109263;1274;24400;-81
2023/12/24 04:17:24;;;;;;;6.20;5.10;;;;;;;2.28;100.00;99154.83;108747;1280;22163;-81
2023/12/24 04:20:13;;;;;;;5.90;4.10;;;;;;;2.26;100.00;99152.13;108990;1277;22103;-79
2023/12/24 04:23:20;;;;;;;5.40;3.70;;;;;;;2.23;100.00;99149.45;108971;1280;22062;-80
2023/12/24 04:26:13;;;;;;;5.90;3.20;;;;;;;2.20;100.00;99145.89;108656;1284;22024;-79
2023/12/24 04:29:36;;;;;;;5.40;2.80;;;;;;;2.18;100.00;99149.05;108658;1284;23152;-80
2023/12/24 04:32:54;;;;;;;3.70;2.80;;;;;;;2.18;100.00;99152.48;108618;1284;22001;-80
2023/12/24 04:36:23;;;;;;;2.50;2.10;;;;;;;2.15;100.00;99155.28;108990;1278;21984;-80
2023/12/24 04:39:14;;;;;;;3.80;2.40;;;;;;;2.16;100.00;99151.81;108668;1279;23063;-82
2023/12/24 04:45:42;;;;;;;2.50;1.90;;;;;;;2.21;100.00;99145.89;108983;1279;23047;-83
2023/12/24 04:48:40;;;;;;;3.90;1.90;;;;;;;2.17;100.00;99146.48;108850;1279;22002;-82
2023/12/24 04:52:01;;;;;;;;;;;;;;;2.16;100.00;99147.52;109116;1279;21970;-81
2023/12/24 04:55:13;;;;;;;2.30;1.80;;;;;;;2.08;100.00;99149.09;109022;1279;21993;-81
2023/12/24 04:58:04;;;;;;;2.60;1.80;;;;;;;2.10;100.00;99156.41;109264;1274;22030;-82
2023/12/24 05:01:00;;;;;;;2.50;2.00;;;;;;;2.12;100.00;99156.04;109542;1269;23699;-81
2023/12/24 05:04:12;;;;;;;2.40;1.80;;;;;;;2.11;100.00;99158.61;109947;1269;22011;-80
2023/12/24 05:07:27;;;;;;;3.20;2.00;;;;;;;2.09;100.00;99158.16;109888;1269;24068;-80
2023/12/24 05:10:31;;;;;;;2.90;2.40;;;;;;;2.07;100.00;99159.40;109682;1269;21997;-82
2023/12/24 05:13:38;;;;;;;2.80;2.30;;;;;;;2.04;100.00;99154.32;109988;1268;22337;-82
2023/12/24 05:17:02;;;;;;;3.40;2.00;;;;;;;2.03;100.00;99157.60;109920;1269;22056;-82
2023/12/24 05:19:56;;;;;;;3.40;2.10;;;;;;;2.02;100.00;99155.57;110402;1263;21968;-83
2023/12/24 05:23:21;;;;;;;3.00;2.00;;;;;;;2.01;100.00;99154.05;110676;1263;24147;-81
2023/12/24 05:26:11;;;;;;;3.80;2.10;;;;;;;2.00;100.00;99151.50;110632;1262;23112;-79
2023/12/24 05:29:29;;;;;;;6.50;4.40;;;;;;;1.98;100.00;99147.77;110418;1263;21967;-81
2023/12/24 05:32:20;;;;;;;10.60;7.30;;;;;;;1.97;100.00;99152.60;110452;1263;22028;-82
2023/12/24 05:35:17;;;;;;;5.20;4.60;;;;;;;1.99;100.00;99157.52;110002;1268;21994;-82
2023/12/24 05:38:23;;;;;;;7.50;5.50;;;;;;;1.99;100.00;99161.66;110019;1267;22340;-82
2023/12/24 05:42:45;;;;;;;13.40;10.20;;;;;;;1.91;100.00;99158.55;109541;1272;23725;-81
2023/12/24 05:47:21;;;;;;;;;;;;;;;;;;;;;
2023/12/24 05:54:56;;;;;;;5.70;5.00;;;;;;;1.85;100.00;99171.90;107234;1301;22494;-80
2023/12/24 05:58:30;;;;;;;9.40;8.30;;;;;;;1.85;100.00;99178.44;106091;1311;22789;-80
2023/12/24 06:01:11;;;;;;;13.90;8.20;;;;;;;1.84;100.00;99183.26;106687;1306;22001;-81
2023/12/24 06:07:15;;;;;;;;;;;;;;;;;;;;;
2023/12/24 06:11:00;;;;;;;26.70;21.90;;;;;;;1.88;100.00;99191.04;106880;1302;23177;-80
2023/12/24 06:14:56;;;;;;;;;;;;;;;;;;;;;
2023/12/24 06:18:06;;;;;;;;;;;;;;;;;;;;;
2023/12/24 06:21:30;;;;;;;7.00;6.20;;;;;;;1.89;100.00;99184.34;107357;1297;22016;-81
2023/12/24 06:24:32;;;;;;;;;;;;;;;;;;;;;
2023/12/24 06:27:48;;;;;;;5.90;5.10;;;;;;;1.95;100.00;99189.00;107832;1292;22541;-84
2023/12/24 06:30:25;;;;;;;9.20;4.50;;;;;;;1.97;100.00;99192.05;108053;1285;22967;-81
2023/12/24 06:33:08;;;;;;;15.50;12.40;;;;;;;1.98;100.00;99185.17;108590;1285;22018;-80
2023/12/24 06:37:03;;;;;;;;;;;;;;;;;;;;;
2023/12/24 06:39:57;;;;;;;48.30;39.20;;;;;;;1.88;100.00;99179.89;109095;1276;22027;-81
2023/12/24 06:42:56;;;;;;;8.70;7.80;;;;;;;1.87;100.00;99176.48;109090;1276;23641;-81
2023/12/24 06:46:11;;;;;;;;;;;;;;;;;;;;;
2023/12/24 06:49:41;;;;;;;8.30;6.90;;;;;;;1.88;100.00;99175.79;109090;1276;22975;-81
2023/12/24 06:52:35;;;;;;;11.80;8.90;;;;;;;1.88;100.00;99176.97;109971;1269;23635;-80
2023/12/24 06:55:56;;;;;;;;;;;;;;;;;;;;;
2023/12/24 06:58:44;;;;;;;7.00;6.30;;;;;;;1.90;100.00;99184.65;109345;1274;22027;-82
2023/12/24 07:01:48;;;;;;;16.90;14.30;;;;;;;1.90;100.00;99184.30;108725;1282;22002;-81
2023/12/24 07:04:28;;;;;;;184.60;106.40;;;;;;;1.94;100.00;99182.33;108730;1282;21980;-82
2023/12/24 07:07:18;;;;;;;;;;;;;;;;;;;;;
2023/12/24 07:10:29;;;;;;;11.50;8.40;;;;;;;1.92;100.00;99188.56;109226;1276;23882;-82
2023/12/24 07:14:21;;;;;;;10.90;9.60;;;;;;;1.88;100.00;99191.05;109352;1276;21995;-85
2023/12/24 07:18:29;;;;;;;;;;;;;;;;;;;;;
2023/12/24 07:22:10;;;;;;;;;;;;;;;;;;;;;
2023/12/24 07:25:28;;;;;;;20.60;17.90;;;;;;;1.79;100.00;99199.48;109593;1272;22395;-84
2023/12/24 07:28:41;;;;;;;12.90;11.70;;;;;;;1.80;100.00;99193.95;109223;1274;21987;-82
2023/12/24 07:31:19;;;;;;;11.70;10.50;;;;;;;1.88;100.00;99200.64;108729;1283;22008;-82
2023/12/24 07:34:07;;;;;;;11.00;9.80;;;;;;;1.92;100.00;99199.71;108683;1280;22002;-80
2023/12/24 07:37:08;;;;;;;13.30;11.90;;;;;;;1.92;100.00;99199.53;108823;1280;22026;-82
2023/12/24 07:40:26;;;;;;;;;;;;;;;;;;;;;
2023/12/24 07:43:42;;;;;;;14.70;13.20;;;;;;;1.88;100.00;99206.15;109123;1276;22164;-82
2023/12/24 07:46:56;;;;;;;10.60;9.40;;;;;;;1.90;100.00;99201.79;109181;1276;23059;-82
2023/12/24 07:49:54;;;;;;;11.60;10.30;;;;;;;1.94;100.00;99202.58;109577;1270;21982;-82
2023/12/24 07:54:03;;;;;;;;;;;;;;;;;;;;;
2023/12/24 07:57:11;;;;;;;11.30;10.20;;;;;;;2.02;100.00;99213.75;109583;1273;22341;-83
2023/12/24 08:00:10;;;;;;;12.50;11.20;;;;;;;2.04;100.00;99214.55;109828;1269;21986;-81
2023/12/24 08:03:24;;;;;;;12.70;11.40;;;;;;;2.07;100.00;99210.02;109306;1274;24346;-83
2023/12/24 08:06:22;;;;;;;;;;;;;;;;;;;;;
2023/12/24 08:09:30;;;;;;;15.50;13.90;;;;;;;2.09;100.00;99200.04;109518;1274;21980;-83
2023/12/24 08:12:24;;;;;;;28.90;26.10;;;;;;;2.16;100.00;99203.16;109422;1274;21999;-83
2023/12/24 08:15:36;;;;;;;18.20;16.30;;;;;;;2.21;100.00;99205.80;109333;1274;23904;-84
2023/12/24 08:18:56;;;;;;;20.30;17.40;;;;;;;2.23;100.00;99205.76;109547;1274;23708;-84
2023/12/24 08:22:19;;;;;;;;;;;;;;;;;;;;;
2023/12/24 08:25:25;;;;;;;14.50;13.00;;;;;;;2.24;100.00;99213.28;110179;1268;21980;-83
2023/12/24 08:28:50;;;;;;;11.50;10.30;;;;;;;2.24;100.00;99216.20;110246;1268;22037;-84
2023/12/24 08:31:58;;;;;;;12.50;11.20;;;;;;;2.24;100.00;99222.56;110208;1264;23722;-82
2023/12/24 08:35:13;;;;;;;;;;;;;;;;;;;;;
2023/12/24 08:38:32;;;;;;;21.00;17.30;;;;;;;2.22;100.00;99212.28;109393;1274;23180;-82
2023/12/24 08:41:27;;;;;;;13.50;12.10;;;;;;;2.20;100.00;99208.20;109209;1276;22399;-82
2023/12/24 08:44:34;;;;;;;17.70;14.30;;;;;;;2.23;100.00;99201.45;109201;1273;23047;-82
2023/12/24 08:47:20;;;;;;;14.60;13.10;;;;;;;2.30;100.00;99202.33;109203;1276;22042;-83
2023/12/24 08:50:28;;;;;;;;;;;;;;;;;;;;;
2023/12/24 08:53:40;;;;;;;27.30;22.60;;;;;;;2.32;100.00;99202.43;109182;1276;22031;-82
2023/12/24 08:56:46;;;;;;;;;;;;;;;;;;;;;
2023/12/24 08:59:38;;;;;;;24.80;17.20;;;;;;;2.19;100.00;99194.15;109526;1270;22065;-81
2023/12/24 09:03:04;;;;;;;29.70;24.20;;;;;;;2.12;100.00;99192.95;110142;1263;21984;-83
2023/12/24 09:06:08;;;;;;;35.40;25.10;;;;;;;2.11;100.00;99191.77;109987;1270;23777;-82
2023/12/24 09:09:30;;;;;;;26.00;21.30;;;;;;;2.14;100.00;99183.98;110144;1268;23841;-81
2023/12/24 09:12:33;;;;;;;37.90;24.50;;;;;;;2.14;100.00;99182.77;109935;1269;22005;-81
2023/12/24 09:15:49;;;;;;;36.80;26.40;;;;;;;2.13;100.00;99178.84;109757;1269;22253;-82
2023/12/24 09:18:38;;;;;;;43.50;26.10;;;;;;;2.12;100.00;99180.06;109731;1271;21994;-81
2023/12/24 09:22:07;;;;;;;33.40;21.30;;;;;;;2.12;100.00;99175.09;109737;1271;24006;-80
2023/12/24 09:25:01;;;;;;;28.70;22.30;;;;;;;2.11;100.00;99165.67;109801;1271;21982;-82
2023/12/24 09:28:07;;;;;;;30.80;23.30;;;;;;;2.10;100.00;99165.52;109783;1271;21984;-82
2023/12/24 09:31:43;;;;;;;34.50;27.40;;;;;;;2.05;100.00;99147.61;109765;1271;23745;-82
2023/12/24 09:35:31;;;;;;;30.70;22.20;;;;;;;2.14;100.00;99159.23;109663;1271;22089;-81
2023/12/24 09:38:50;;;;;;;32.60;20.50;;;;;;;2.17;100.00;99157.32;110597;1265;22733;-81
2023/12/24 09:42:06;;;;;;;37.00;25.00;;;;;;;2.16;100.00;99157.33;110119;1268;24453;-82
2023/12/24 09:45:49;;;;;;;32.50;22.30;;;;;;;2.13;100.00;99147.42;110902;1261;21970;-81
2023/12/24 09:48:58;;;;;;;48.50;37.30;;;;;;;2.11;100.00;99142.84;110846;1261;21975;-81
2023/12/24 09:52:21;;;;;;;47.00;33.70;;;;;;;2.09;100.00;99140.14;110724;1261;23020;-82
2023/12/24 09:55:45;;;;;;;67.40;44.60;;;;;;;2.10;100.00;99137.88;110957;1261;23075;-80
2023/12/24 09:59:32;;;;;;;41.40;29.80;;;;;;;2.14;100.00;99132.46;110364;1266;23682;-80
2023/12/24 10:03:24;;;;;;;53.40;41.20;;;;;;;2.15;100.00;99115.98;110341;1266;21995;-81
2023/12/24 10:06:28;;;;;;;65.60;48.40;;;;;;;2.18;100.00;99112.47;110405;1259;23152;-80
2023/12/24 10:10:16;;;;;;;44.90;29.30;;;;;;;2.10;100.00;99094.65;109963;1269;23725;-80
2023/12/24 10:13:46;;;;;;;54.10;33.50;;;;;;;2.16;100.00;99100.34;109830;1269;22061;-80
2023/12/24 10:17:42;;;;;;;;;;;;;;;;;;;;;
2023/12/24 10:21:42;;;;;;;43.40;37.10;;;;;;;2.11;100.00;99090.84;108660;1285;22504;-80
2023/12/24 10:24:40;;;;;;;45.60;29.00;;;;;;;2.10;100.00;99084.67;108163;1291;22044;-81
2023/12/24 10:28:11;;;;;;;40.50;29.50;;;;;;;2.12;100.00;99080.85;108254;1290;24231;-81
2023/12/24 10:30:47;;;;;;;31.20;22.00;;;;;;;2.15;100.00;99076.15;108319;1291;22047;-79
2023/12/24 10:33:28;;;;;;;;;;;;;;;;;;;;;
2023/12/24 10:37:04;;;;;;;;;;;;;;;;;;;;;
2023/12/24 10:40:01;;;;;;;33.30;25.50;;;;;;;2.05;100.00;99059.24;108950;1281;22003;-80
2023/12/24 10:43:38;;;;;;;34.70;28.50;;;;;;;2.01;100.00;99050.39;108959;1281;21994;-81
2023/12/24 10:47:03;;;;;;;28.50;22.40;;;;;;;2.03;100.00;99044.86;109190;1268;21997;-81
2023/12/24 10:49:55;;;;;;;23.80;21.00;;;;;;;2.03;100.00;99041.98;109106;1276;22014;-82
2023/12/24 10:53:32;;;;;;;42.80;38.80;;;;;;;2.01;100.00;99028.97;109272;1274;21994;-83
2023/12/24 10:57:26;;;;;;;27.20;23.60;;;;;;;2.03;100.00;99015.54;108932;1281;22346;-80
2023/12/24 11:04:50;;;;;;;22.20;18.50;;;;;;;2.00;100.00;99010.13;108724;1276;23094;-79
2023/12/24 11:07:57;;;;;;;31.80;25.30;;;;;;;2.00;100.00;99006.69;108754;1282;22477;-81
2023/12/24 11:11:20;;;;;;;;;;;;;;;;;;;;;
2023/12/24 11:14:50;;;;;;;;;;;;;;;;;;;;;
2023/12/24 11:17:58;;;;;;;19.10;15.10;;;;;;;1.95;100.00;98981.92;108487;1287;23817;-83
2023/12/24 11:24:42;;;;;;;;;;;;;;;;;;;;;
2023/12/24 11:32:29;;;;;;;;;;;;;;;;;;;;;
2023/12/24 11:41:28;;;;;;;28.50;23.00;;;;;;;1.86;100.00;98932.75;109626;1266;22587;-81
2023/12/24 11:45:12;;;;;;;24.40;21.80;;;;;;;1.89;100.00;98921.48;109264;1275;22747;-80
2023/12/24 11:49:23;;;;;;;;;;;;;;;;;;;;;
2023/12/24 11:52:29;;;;;;;17.60;15.40;;;;;;;1.99;100.00;98897.40;108660;1284;22460;-84
2023/12/24 11:55:31;;;;;;;17.80;15.40;;;;;;;1.99;100.00;98897.39;108606;1285;23046;-80
2023/12/24 11:59:18;;;;;;;;;;;;;;;;;;;;;
2023/12/24 12:02:28;;;;;;;;;;;;;;;;;;;;;
2023/12/24 12:05:13;;;;;;;17.90;16.00;;;;;;;2.02;100.00;98867.30;108653;1285;23856;-83
2023/12/24 12:08:07;;;;;;;19.10;17.00;;;;;;;2.01;100.00;98860.30;109295;1275;23061;-81
2023/12/24 12:11:03;;;;;;;20.20;18.10;;;;;;;2.05;100.00;98855.38;109276;1276;22018;-82
2023/12/24 12:14:22;;;;;;;26.20;23.40;;;;;;;2.14;100.00;98864.05;109291;1275;22004;-82
2023/12/24 12:17:34;;;;;;;31.30;27.80;;;;;;;2.25;100.00;98875.27;109862;1269;23098;-84
2023/12/24 12:20:31;;;;;;;39.60;34.70;;;;;;;2.31;100.00;98869.26;110473;1262;23693;-83
2023/12/24 12:23:22;;;;;;;30.20;27.20;;;;;;;2.35;100.00;98862.45;110302;1265;22003;-80
2023/12/24 12:26:29;;;;;;;43.60;38.60;;;;;;;2.40;100.00;98857.66;110355;1265;22000;-84
2023/12/24 12:29:44;;;;;;;;;;;;;;;;;;;;;
2023/12/24 12:33:02;;;;;;;47.30;33.70;;;;;;;2.44;100.00;98850.35;110522;1265;22984;-81
2023/12/24 12:36:50;;;;;;;80.50;49.60;;;;;;;2.47;100.00;98842.18;110585;1264;23050;-81
2023/12/24 12:41:09;;;;;;;;;;;;;;;;;;;;;
2023/12/24 12:44:19;;;;;;;39.60;31.30;;;;;;;2.60;100.00;98830.14;109493;1273;23655;-81
2023/12/24 12:48:02;;;;;;;;;;;;;;;;;;;;;
2023/12/24 12:51:23;;;;;;;;;;;;;;;;;;;;;
2023/12/24 12:54:48;;;;;;;36.90;33.20;;;;;;;2.76;100.00;98826.75;109376;1271;23640;-81
2023/12/24 12:57:57;;;;;;;35.80;32.10;;;;;;;2.88;100.00;98825.34;109385;1272;22017;-80
2023/12/24 13:01:22;;;;;;;39.30;35.20;;;;;;;2.98;100.00;98821.08;109240;1272;21986;-81
2023/12/24 13:04:37;;;;;;;57.60;50.60;;;;;;;3.05;100.00;98816.72;109024;1277;23764;-79
2023/12/24 13:12:17;;;;;;;39.60;34.20;;;;;;;3.17;100.00;98815.69;108138;1286;23099;-78
2023/12/24 13:15:38;;;;;;;;;;;;;;;;;;;;;
2023/12/24 13:18:58;;;;;;;42.70;38.00;;;;;;;3.30;100.00;98818.86;108163;1286;23627;-78
2023/12/24 13:22:02;;;;;;;;;;;;;;;;;;;;;
2023/12/24 13:25:03;;;;;;;;;;;;;;;;;;;;;
2023/12/24 13:28:35;;;;;;;44.00;36.90;;;;;;;3.55;100.00;98799.96;108695;1281;22977;-80
2023/12/24 13:31:53;;;;;;;35.40;31.70;;;;;;;3.61;100.00;98789.98;108968;1279;23081;-79
2023/12/24 13:35:12;;;;;;;;;;;;;;;3.74;100.00;98803.64;109101;1276;21967;-79
2023/12/24 13:38:41;;;;;;;24.40;21.80;;;;;;;3.70;100.00;98805.14;109016;1276;22061;-80
2023/12/24 13:42:07;;;;;;;27.40;23.70;;;;;;;3.83;100.00;98803.48;109507;1270;21984;-81
2023/12/24 13:44:57;;;;;;;25.10;19.80;;;;;;;3.95;100.00;98794.45;109077;1274;22756;-79
2023/12/24 13:48:55;;;;;;;;;;;;;;;;;;;;;
2023/12/24 13:52:57;;;;;;;20.00;17.30;;;;;;;4.18;100.00;98770.92;108841;1281;22083;-81
2023/12/24 13:56:08;;;;;;;20.00;17.90;;;;;;;4.27;100.00;98769.55;108709;1281;22983;-84
2023/12/24 13:59:47;;;;;;;19.50;17.40;;;;;;;4.31;100.00;98757.52;104778;1278;22439;-83
2023/12/24 14:03:10;;;;;;;19.60;17.50;;;;;;;4.45;100.00;98771.64;108938;1278;21989;-81
2023/12/24 14:06:11;;;;;;;23.90;19.30;;;;;;;4.55;100.00;98773.15;109801;1271;23713;-82
2023/12/24 14:08:50;;;;;;;23.90;21.50;;;;;;;4.65;100.00;98774.64;109654;1271;23621;-81
2023/12/24 14:11:45;;;;;;;;;;;;;;;;;;;;;
2023/12/24 14:15:27;;;;;;;23.30;20.60;;;;;;;4.85;100.00;98770.43;109702;1271;23611;-82
2023/12/24 14:19:05;;;;;;;25.10;21.30;;;;;;;4.92;100.00;98773.07;109826;1270;22730;-82
2023/12/24 14:22:39;;;;;;;37.80;33.00;;;;;;;5.01;100.00;98770.46;109506;1272;24088;-81
2023/12/24 14:26:03;;;;;;;24.00;21.50;;;;;;;5.11;100.00;98755.59;109628;1272;23068;-81
2023/12/24 14:33:10;;;;;;;26.20;22.80;;;;;;;5.27;100.00;98746.47;108613;1285;23779;-82
2023/12/24 14:36:01;;;;;;;24.20;20.50;;;;;;;5.37;100.00;98739.85;108985;1277;23670;-81
2023/12/24 14:39:36;;;;;;;24.50;18.50;;;;;;;5.45;100.00;98739.66;109277;1273;22759;-83
2023/12/24 14:42:35;;;;;;;16.80;14.10;;;;;;;5.53;100.00;98744.89;109176;1276;22047;-82
2023/12/24 14:45:28;;;;;;;21.60;15.60;;;;;;;5.59;100.00;98750.11;109167;1275;22099;-79
2023/12/24 14:48:21;;;;;;;21.00;16.70;;;;;;;5.68;100.00;98755.95;109571;1271;21989;-80
2023/12/24 14:51:23;;;;;;;19.50;14.70;;;;;;;5.77;100.00;98750.58;109644;1271;21992;-82
2023/12/24 14:54:28;;;;;;;18.20;15.90;;;;;;;5.83;100.00;98739.42;109652;1258;23083;-80
2023/12/24 14:57:51;;;;;;;;;;;;;;;;;;;;;
2023/12/24 15:01:09;;;;;;;20.10;17.80;;;;;;;5.82;100.00;98720.82;109133;1275;23644;-81
2023/12/24 15:04:09;;;;;;;;;;;;;;;;;;;;;
2023/12/24 15:10:40;;;;;;;33.20;23.20;;;;;;;6.16;100.00;98733.52;108455;1283;21932;-78
2023/12/24 15:14:26;;;;;;;;;;;;;;;;;;;;;
2023/12/24 15:18:13;;;;;;;;;;;;;;;;;;;;;
2023/12/24 15:21:01;;;;;;;15.40;11.90;;;;;;;6.39;100.00;98727.23;108205;1294;22012;-78
2023/12/24 15:23:52;;;;;;;11.90;10.60;;;;;;;6.47;100.00;98722.22;108036;1294;22495;-79
2023/12/24 15:27:16;;;;;;;;;;;;;;;;;;;;;
2023/12/24 15:30:08;;;;;;;13.00;9.40;;;;;;;6.64;100.00;98721.95;108391;1289;22008;-79
2023/12/24 15:33:05;;;;;;;12.90;9.00;;;;;;;6.72;100.00;98721.56;108073;1296;22369;-78
2023/12/24 15:36:19;;;;;;;11.60;9.80;;;;;;;6.79;100.00;98715.35;107882;1295;22688;-81
2023/12/24 15:39:45;;;;;;;10.50;9.40;;;;;;;6.99;100.00;98710.72;108042;1293;546152;-80
2023/12/24 15:43:12;;;;;;;9.00;7.50;;;;;;;6.98;100.00;98706.10;110899;1259;22957;-79
2023/12/24 15:46:02;;;;;;;16.30;14.20;;;;;;;7.02;100.00;98701.27;110727;1264;22372;-80
2023/12/24 15:48:44;;;;;;;19.30;17.30;;;;;;;7.08;100.00;98695.27;110129;1269;22039;-81
2023/12/24 15:51:42;;;;;;;11.00;7.70;;;;;;;7.15;100.00;98699.23;109627;1275;22443;-81
2023/12/24 15:54:43;;;;;;;10.10;8.10;;;;;;;7.19;100.00;98695.75;109713;1271;22133;-82
2023/12/24 15:57:32;;;;;;;10.30;7.60;;;;;;;7.24;100.00;98697.56;109753;1271;22006;-81
2023/12/24 16:00:35;;;;;;;;;;;;;;;;;;;;;
2023/12/24 16:03:31;;;;;;;10.00;8.10;;;;;;;7.30;100.00;98688.11;109895;1267;23781;-81
2023/12/24 16:06:20;;;;;;;11.40;9.50;;;;;;;7.32;100.00;98678.79;110172;1267;21978;-82
2023/12/24 16:09:25;;;;;;;13.20;9.60;;;;;;;7.35;100.00;98678.85;110436;1261;21969;-84
2023/12/24 16:12:20;;;;;;;10.50;8.70;;;;;;;7.37;100.00;98676.11;110977;1255;21970;-83
2023/12/24 16:15:26;;;;;;;8.40;7.00;;;;;;;7.41;100.00;98675.09;111418;1256;22303;-82
2023/12/24 16:18:16;;;;;;;8.80;7.50;;;;;;;7.46;100.00;98674.65;111364;1247;21973;-85
2023/12/24 16:21:10;;;;;;;10.30;7.60;;;;;;;7.51;100.00;98673.02;111649;1253;21973;-82
2023/12/24 16:24:16;;;;;;;11.70;7.70;;;;;;;7.56;100.00;98669.99;111094;1259;22019;-84
2023/12/24 16:26:56;;;;;;;14.40;8.90;;;;;;;7.59;100.00;98672.77;110519;1257;22501;-84
2023/12/24 16:29:34;;;;;;;38.80;31.30;;;;;;;7.64;100.00;98679.77;110531;1264;22004;-85
2023/12/24 16:32:33;;;;;;;;;;;;;;;;;;;;;
2023/12/24 16:35:10;;;;;;;8.40;6.90;;;;;;;7.70;100.00;98674.94;110645;1264;23754;-81
2023/12/24 16:37:50;;;;;;;11.70;8.00;;;;;;;7.73;100.00;98678.42;110456;1265;22984;-82
2023/12/24 16:40:28;;;;;;;11.80;8.10;;;;;;;7.77;100.00;98680.45;110362;1264;21993;-84
2023/12/24 16:43:02;;;;;;;9.60;7.70;;;;;;;7.81;100.00;98671.08;111048;1249;21964;-82
2023/12/24 16:45:44;;;;;;;9.10;6.10;;;;;;;7.84;100.00;98669.21;111163;1258;22577;-82
2023/12/24 16:48:22;;;;;;;8.20;6.70;;;;;;;7.87;100.00;98663.67;111127;1258;21966;-82
2023/12/24 16:51:38;;;;;;;8.90;5.70;;;;;;;7.90;100.00;98664.72;111335;1258;23471;-83
2023/12/24 16:57:52;;;;;;;10.50;6.80;;;;;;;7.95;100.00;98665.48;111027;1260;22381;-80
2023/12/24 17:00:53;;;;;;;9.00;7.40;;;;;;;8.00;100.00;98663.84;111040;1260;21995;-81
2023/12/24 17:03:48;;;;;;;9.70;7.10;;;;;;;8.03;100.00;98660.88;110385;1260;21972;-84
2023/12/24 17:06:57;;;;;;;;;;;;;;;;;;;;;
2023/12/24 17:09:49;;;;;;;;;;;;;;;;;;;;;
2023/12/24 17:12:46;;;;;;;9.20;6.90;;;;;;;8.11;100.00;98643.33;109985;1271;23601;-84
2023/12/24 17:19:31;;;;;;;9.20;6.80;;;;;;;8.10;100.00;98637.66;110033;1271;21990;-83
2023/12/24 17:22:06;;;;;;;45.00;40.30;;;;;;;8.21;100.00;98648.14;110466;1264;22006;-82
2023/12/24 17:24:45;;;;;;;11.40;8.60;;;;;;;8.27;100.00;98647.48;110802;1260;22940;-83